createdAt,value
2019-03-16T00:01:14.470Z,16.60
2019-03-16T00:03:43.286Z,17.20
2019-03-16T00:06:12.135Z,24.03
2019-03-16T00:08:40.906Z,13.80
2019-03-16T00:11:09.753Z,16.87
2019-03-16T00:13:38.582Z,23.00
2019-03-16T00:16:07.649Z,16.17
2019-03-16T00:18:36.431Z,15.57
2019-03-16T00:21:05.160Z,19.27
2019-03-16T00:23:34.087Z,13.20
2019-03-16T00:26:07.593Z,20.37
2019-03-16T00:28:36.462Z,21.70
2019-03-16T00:31:05.271Z,15.63
2019-03-16T00:33:34.107Z,13.50
2019-03-16T00:36:02.914Z,20.80
2019-03-16T00:38:31.635Z,16.63
2019-03-16T00:41:00.374Z,10.63
2019-03-16T00:43:29.170Z,12.10
2019-03-16T00:46:22.842Z,21.60
2019-03-16T00:48:51.641Z,14.00
2019-03-16T00:51:20.459Z,15.63
2019-03-16T00:53:49.269Z,19.60
2019-03-16T00:56:18.042Z,12.87
2019-03-16T00:58:46.845Z,13.50
2019-03-16T01:01:15.679Z,18.97
2019-03-16T01:03:44.457Z,20.77
2019-03-16T01:06:13.261Z,19.10
2019-03-16T01:08:42.096Z,16.33
2019-03-16T01:11:10.884Z,20.53
2019-03-16T01:13:39.610Z,25.50
2019-03-16T01:16:08.446Z,18.93
2019-03-16T01:18:37.189Z,16.27
2019-03-16T01:21:05.934Z,18.57
2019-03-16T01:23:34.745Z,14.23
2019-03-16T01:26:03.560Z,20.10
2019-03-16T01:28:32.340Z,27.17
2019-03-16T01:31:01.124Z,22.77
2019-03-16T01:33:29.855Z,20.47
2019-03-16T01:35:58.684Z,9.60
2019-03-16T01:38:27.460Z,18.10
2019-03-16T01:40:56.211Z,8.50
2019-03-16T01:43:24.994Z,29.87
2019-03-16T01:45:53.790Z,20.77
2019-03-16T01:48:22.511Z,13.93
2019-03-16T01:50:51.264Z,14.93
2019-03-16T01:53:20.024Z,22.47
2019-03-16T01:55:48.757Z,22.93
2019-03-16T01:58:17.537Z,14.90
2019-03-16T02:00:46.288Z,17.63
2019-03-16T02:03:15.021Z,21.20
2019-03-16T02:05:43.737Z,21.70
2019-03-16T02:08:12.551Z,22.43
2019-03-16T02:10:41.313Z,34.13
2019-03-16T02:13:10.116Z,22.67
2019-03-16T02:15:38.850Z,17.10
2019-03-16T02:18:07.563Z,14.53
2019-03-16T02:20:36.275Z,19.70
2019-03-16T02:23:05.012Z,19.13
2019-03-16T02:25:33.800Z,17.53
2019-03-16T02:28:02.530Z,23.97
2019-03-16T02:30:31.234Z,19.33
2019-03-16T02:33:12.464Z,9.00
2019-03-16T02:35:30.414Z,20.77
2019-03-16T02:37:59.145Z,11.27
2019-03-16T02:40:27.962Z,11.50
2019-03-16T02:42:57.008Z,13.80
2019-03-16T02:45:25.717Z,12.80
2019-03-16T02:47:54.561Z,25.30
2019-03-16T02:50:23.330Z,14.80
2019-03-16T02:52:52.064Z,21.00
2019-03-16T02:55:20.842Z,25.53
2019-03-16T02:57:49.596Z,11.27
2019-03-16T03:00:18.363Z,23.50
2019-03-16T03:02:47.157Z,19.70
2019-03-16T03:05:15.914Z,26.50
2019-03-16T03:07:44.639Z,19.03
2019-03-16T03:10:13.443Z,8.90
2019-03-16T03:12:42.174Z,18.43
2019-03-16T03:15:11.063Z,20.30
2019-03-16T03:17:39.871Z,20.50
2019-03-16T03:20:08.692Z,18.40
2019-03-16T03:22:37.424Z,26.43
2019-03-16T03:25:06.229Z,15.93
2019-03-16T03:27:35.031Z,25.33
2019-03-16T03:30:04.119Z,14.03
2019-03-16T03:32:32.979Z,26.50
2019-03-16T03:35:01.726Z,19.73
2019-03-16T03:37:30.565Z,22.77
2019-03-16T03:39:59.272Z,22.73
2019-03-16T03:42:28.080Z,16.87
2019-03-16T03:44:56.844Z,20.67
2019-03-16T03:47:25.605Z,24.87
2019-03-16T03:49:54.402Z,17.47
2019-03-16T03:52:23.221Z,16.07
2019-03-16T03:54:51.925Z,18.10
2019-03-16T03:57:21.051Z,20.83
2019-03-16T03:59:49.845Z,19.77
2019-03-16T04:02:18.550Z,19.97
2019-03-16T04:04:47.263Z,18.73
2019-03-16T04:07:19.787Z,18.57
2019-03-16T04:09:46.523Z,27.00
2019-03-16T04:12:15.295Z,14.43
2019-03-16T04:14:44.017Z,15.20
2019-03-16T04:17:12.798Z,14.17
2019-03-16T04:19:41.595Z,20.73
2019-03-16T04:22:10.382Z,12.33
2019-03-16T04:24:39.122Z,27.17
2019-03-16T04:27:15.661Z,15.87
2019-03-16T04:29:38.369Z,15.70
2019-03-16T04:32:07.144Z,26.70
2019-03-16T04:34:35.909Z,22.77
2019-03-16T04:37:04.713Z,14.97
2019-03-16T04:39:33.532Z,20.30
2019-03-16T04:42:02.334Z,15.07
2019-03-16T04:44:31.063Z,21.70
2019-03-16T04:46:59.775Z,18.73
2019-03-16T04:49:28.492Z,14.53
2019-03-16T04:51:58.307Z,17.23
2019-03-16T04:54:27.040Z,21.17
2019-03-16T04:56:55.739Z,22.27
2019-03-16T04:59:24.547Z,14.47
2019-03-16T05:01:53.280Z,12.97
2019-03-16T05:04:22.125Z,18.93
2019-03-16T05:06:50.886Z,18.57
2019-03-16T05:09:19.669Z,18.73
2019-03-16T05:11:48.408Z,18.03
2019-03-16T05:14:17.116Z,15.90
2019-03-16T05:16:45.845Z,3.47
2019-03-16T05:19:14.544Z,27.10
2019-03-16T05:21:43.326Z,11.13
2019-03-16T05:24:12.027Z,14.63
2019-03-16T05:26:40.738Z,22.27
2019-03-16T05:29:09.451Z,24.63
2019-03-16T05:31:38.170Z,26.77
2019-03-16T05:34:06.891Z,13.73
2019-03-16T05:36:35.619Z,15.03
2019-03-16T05:39:06.272Z,19.70
2019-03-16T05:41:35.004Z,17.23
2019-03-16T05:44:03.714Z,19.70
2019-03-16T05:46:32.553Z,18.23
2019-03-16T05:49:01.336Z,23.03
2019-03-16T05:51:30.069Z,11.80
2019-03-16T05:53:58.855Z,15.77
2019-03-16T05:56:27.625Z,16.73
2019-03-16T05:58:56.367Z,14.57
2019-03-16T06:01:25.110Z,21.57
2019-03-16T06:03:53.807Z,23.70
2019-03-16T06:06:22.543Z,9.10
2019-03-16T06:08:51.324Z,18.03
2019-03-16T06:11:20.053Z,31.07
2019-03-16T06:13:48.778Z,24.90
2019-03-16T06:16:17.559Z,15.50
2019-03-16T06:18:46.287Z,14.83
2019-03-16T06:21:15.014Z,20.53
2019-03-16T06:23:43.728Z,23.13
2019-03-16T06:26:12.566Z,15.47
2019-03-16T06:28:41.306Z,19.67
2019-03-16T06:31:12.035Z,16.10
2019-03-16T06:33:40.861Z,16.80
2019-03-16T06:36:09.641Z,17.47
2019-03-16T06:38:38.441Z,17.73
2019-03-16T06:41:07.465Z,15.13
2019-03-16T06:43:36.272Z,15.00
2019-03-16T06:46:07.805Z,15.20
2019-03-16T06:48:36.536Z,11.57
2019-03-16T06:51:05.264Z,14.43
2019-03-16T06:53:33.969Z,17.60
2019-03-16T06:56:02.687Z,19.97
2019-03-16T06:58:32.680Z,13.67
2019-03-16T07:01:01.429Z,11.63
2019-03-16T07:03:32.012Z,18.17
2019-03-16T07:06:00.801Z,17.33
2019-03-16T07:08:29.582Z,12.63
2019-03-16T07:10:58.653Z,14.93
2019-03-16T07:13:27.390Z,15.20
2019-03-16T07:15:56.251Z,13.07
2019-03-16T07:18:25.221Z,11.27
2019-03-16T07:20:53.955Z,15.47
2019-03-16T07:23:22.813Z,13.90
2019-03-16T07:25:55.369Z,7.73
2019-03-16T07:28:24.084Z,12.20
2019-03-16T07:30:52.868Z,20.03
2019-03-16T07:33:21.610Z,16.23
2019-03-16T07:35:50.324Z,15.57
2019-03-16T07:38:19.144Z,13.93
2019-03-16T07:40:47.854Z,8.13
2019-03-16T07:43:16.813Z,17.87
2019-03-16T07:45:45.548Z,12.93
2019-03-16T07:48:14.358Z,6.93
2019-03-16T07:50:43.136Z,18.57
2019-03-16T07:53:11.937Z,14.60
2019-03-16T07:55:42.269Z,14.70
2019-03-16T07:58:13.217Z,10.33
2019-03-16T08:00:41.947Z,14.23
2019-03-16T08:03:11.953Z,14.77
2019-03-16T08:05:41.987Z,9.13
2019-03-16T08:08:10.754Z,14.40
2019-03-16T08:10:41.431Z,21.13
2019-03-16T08:13:10.152Z,8.47
2019-03-16T08:15:38.947Z,13.03
2019-03-16T08:18:09.082Z,16.97
2019-03-16T08:20:37.873Z,8.60
2019-03-16T08:23:06.741Z,12.00
2019-03-16T08:25:35.533Z,12.73
2019-03-16T08:28:04.273Z,13.83
2019-03-16T08:30:33.089Z,17.90
2019-03-16T08:33:01.896Z,18.83
2019-03-16T08:35:30.739Z,16.80
2019-03-16T08:37:59.650Z,10.20
2019-03-16T08:40:31.460Z,23.00
2019-03-16T08:43:01.476Z,21.47
2019-03-16T08:45:32.851Z,14.57
2019-03-16T08:48:02.676Z,10.20
2019-03-16T08:50:31.637Z,15.57
2019-03-16T08:53:00.508Z,12.63
2019-03-16T08:55:30.336Z,11.77
2019-03-16T08:58:06.140Z,14.70
2019-03-16T09:00:29.771Z,16.23
2019-03-16T09:02:59.940Z,13.00
2019-03-16T09:05:28.736Z,9.10
2019-03-16T09:07:57.763Z,9.67
2019-03-16T09:10:26.558Z,12.73
2019-03-16T09:12:55.583Z,12.40
2019-03-16T09:15:24.419Z,15.03
2019-03-16T09:17:53.214Z,15.27
2019-03-16T09:20:21.964Z,16.17
2019-03-16T09:22:50.769Z,13.90
2019-03-16T09:25:19.568Z,13.77
2019-03-16T09:27:48.373Z,11.43
2019-03-16T09:30:17.238Z,9.33
2019-03-16T09:32:46.089Z,8.87
2019-03-16T09:35:14.976Z,15.03
2019-03-16T09:37:43.733Z,7.77
2019-03-16T09:40:12.565Z,12.93
2019-03-16T09:42:41.357Z,7.60
2019-03-16T09:45:10.210Z,10.13
2019-03-16T09:47:38.983Z,7.63
2019-03-16T09:50:07.999Z,4.30
2019-03-16T09:52:39.875Z,4.00
2019-03-16T09:55:08.774Z,6.07
2019-03-16T09:57:37.555Z,7.30
2019-03-16T10:00:07.242Z,6.80
2019-03-16T10:02:36.116Z,5.27
2019-03-16T10:05:05.100Z,4.70
2019-03-16T10:07:33.886Z,8.00
2019-03-16T10:10:02.627Z,9.67
2019-03-16T10:12:31.358Z,6.63
2019-03-16T10:15:01.179Z,6.43
2019-03-16T10:17:30.092Z,6.30
2019-03-16T10:19:58.946Z,5.97
2019-03-16T10:22:29.527Z,2.63
2019-03-16T10:24:58.363Z,4.77
2019-03-16T10:27:27.170Z,6.60
2019-03-16T10:29:55.996Z,3.30
2019-03-16T10:32:27.708Z,8.57
2019-03-16T10:34:56.564Z,6.30
2019-03-16T10:37:25.482Z,3.93
2019-03-16T10:39:54.345Z,7.07
2019-03-16T10:42:23.174Z,7.13
2019-03-16T10:44:52.225Z,8.53
2019-03-16T10:47:25.914Z,7.47
2019-03-16T10:49:54.721Z,6.50
2019-03-16T10:52:27.993Z,11.97
2019-03-16T10:54:56.801Z,3.80
2019-03-16T10:57:25.596Z,6.30
2019-03-16T10:59:54.332Z,8.83
2019-03-16T11:02:23.183Z,12.20
2019-03-16T11:04:53.498Z,5.23
2019-03-16T11:07:22.297Z,4.63
2019-03-16T11:09:51.207Z,4.37
2019-03-16T11:12:19.953Z,2.87
2019-03-16T11:14:48.789Z,1.90
2019-03-16T11:17:17.497Z,3.47
2019-03-16T11:19:46.269Z,2.73
2019-03-16T11:22:15.067Z,7.00
2019-03-16T11:24:43.887Z,5.83
2019-03-16T11:27:12.687Z,3.37
2019-03-16T11:29:41.473Z,2.47
2019-03-16T11:32:10.320Z,8.13
2019-03-16T11:34:39.116Z,4.43
2019-03-16T11:37:08.062Z,1.60
2019-03-16T11:39:36.942Z,6.60
2019-03-16T11:42:05.727Z,6.20
2019-03-16T11:44:36.840Z,7.53
2019-03-16T11:47:05.712Z,5.43
2019-03-16T11:49:34.472Z,1.57
2019-03-16T11:52:03.336Z,3.47
2019-03-16T11:54:32.178Z,1.37
2019-03-16T11:57:00.984Z,3.93
2019-03-16T11:59:29.799Z,5.53
2019-03-16T12:02:05.245Z,1.87
2019-03-16T12:04:30.482Z,3.30
2019-03-16T12:06:59.327Z,6.13
2019-03-16T12:09:28.206Z,1.87
2019-03-16T12:11:57.049Z,2.93
2019-03-16T12:14:25.843Z,4.87
2019-03-16T12:16:54.698Z,1.80
2019-03-16T12:19:23.581Z,1.77
2019-03-16T12:21:52.330Z,3.20
2019-03-16T12:24:21.164Z,0.93
2019-03-16T12:26:49.968Z,0.70
2019-03-16T12:29:18.684Z,3.50
2019-03-16T12:31:49.095Z,0.97
2019-03-16T12:34:18.086Z,3.70
2019-03-16T12:36:49.719Z,1.63
2019-03-16T12:39:18.556Z,1.10
2019-03-16T12:41:47.363Z,2.00
2019-03-16T12:44:16.109Z,1.07
2019-03-16T12:46:44.883Z,2.20
2019-03-16T12:49:13.732Z,2.30
2019-03-16T12:51:42.547Z,1.13
2019-03-16T12:54:18.881Z,1.10
2019-03-16T12:56:49.254Z,2.33
2019-03-16T12:59:18.109Z,2.60
2019-03-16T13:01:46.914Z,0.80
2019-03-16T13:04:15.792Z,0.63
2019-03-16T13:06:44.619Z,0.40
2019-03-16T13:09:13.436Z,0.93
2019-03-16T13:11:42.185Z,0.83
2019-03-16T13:14:11.133Z,0.97
2019-03-16T13:16:40.019Z,1.30
2019-03-16T13:19:12.683Z,1.60
2019-03-16T13:21:52.388Z,1.80
2019-03-16T13:24:24.153Z,0.80
2019-03-16T13:26:55.414Z,0.50
2019-03-16T13:29:24.937Z,0.97
2019-03-16T13:31:53.859Z,0.80
2019-03-16T13:34:24.362Z,0.53
2019-03-16T13:37:00.653Z,0.40
2019-03-16T13:39:29.519Z,0.73
2019-03-16T13:41:58.394Z,1.30
2019-03-16T13:44:27.215Z,0.93
2019-03-16T13:46:56.149Z,0.90
2019-03-16T13:49:25.012Z,0.83
2019-03-16T13:51:53.820Z,5.60
2019-03-16T13:54:23.013Z,0.40
2019-03-16T13:56:51.812Z,0.60
2019-03-16T13:59:20.660Z,0.60
2019-03-16T14:01:49.791Z,0.53
2019-03-16T14:04:18.734Z,0.43
2019-03-16T14:06:47.572Z,1.17
2019-03-16T14:09:16.437Z,2.60
2019-03-16T14:11:47.545Z,0.87
2019-03-16T14:14:16.397Z,0.50
2019-03-16T14:16:45.247Z,1.27
2019-03-16T14:19:14.064Z,0.43
2019-03-16T14:21:43.208Z,1.63
2019-03-16T14:24:12.313Z,2.53
2019-03-16T14:26:42.484Z,1.07
2019-03-16T14:29:11.699Z,0.70
2019-03-16T14:31:40.505Z,2.50
2019-03-16T14:34:09.389Z,0.90
2019-03-16T14:36:38.144Z,1.10
2019-03-16T14:39:07.528Z,1.57
2019-03-16T14:41:36.322Z,1.10
2019-03-16T14:44:05.475Z,1.67
2019-03-16T14:46:34.336Z,0.50
2019-03-16T14:49:03.150Z,2.00
2019-03-16T14:51:31.967Z,1.27
2019-03-16T14:54:00.864Z,3.13
2019-03-16T14:56:29.639Z,2.40
2019-03-16T14:58:58.481Z,0.77
2019-03-16T15:01:27.310Z,1.90
2019-03-16T15:03:58.480Z,1.50
2019-03-16T15:06:27.234Z,1.20
2019-03-16T15:08:56.067Z,1.93
2019-03-16T15:11:27.630Z,1.33
2019-03-16T15:13:56.797Z,3.00
2019-03-16T15:16:25.634Z,2.57
2019-03-16T15:18:56.154Z,4.30
2019-03-16T15:21:25.022Z,3.13
2019-03-16T15:23:53.845Z,1.90
2019-03-16T15:26:22.657Z,2.50
2019-03-16T15:29:10.492Z,2.40
2019-03-16T15:31:39.335Z,1.93
2019-03-16T15:34:08.340Z,1.60
2019-03-16T15:36:37.187Z,2.43
2019-03-16T15:39:06.905Z,1.90
2019-03-16T15:41:35.691Z,3.57
2019-03-16T15:44:04.514Z,2.30
2019-03-16T15:46:33.362Z,2.50
2019-03-16T15:49:02.200Z,4.60
2019-03-16T15:51:32.149Z,2.97
2019-03-16T15:54:00.983Z,4.87
2019-03-16T15:56:29.896Z,3.77
2019-03-16T15:58:58.796Z,5.67
2019-03-16T16:01:27.630Z,4.43
2019-03-16T16:03:56.541Z,4.60
2019-03-16T16:06:25.746Z,4.40
2019-03-16T16:08:54.570Z,4.50
2019-03-16T16:11:23.399Z,5.63
2019-03-16T16:13:54.974Z,7.50
2019-03-16T16:16:28.614Z,7.03
2019-03-16T16:18:57.578Z,5.50
2019-03-16T16:21:26.372Z,7.10
2019-03-16T16:23:55.311Z,8.23
2019-03-16T16:26:26.185Z,5.20
2019-03-16T16:28:54.987Z,8.43
2019-03-16T16:31:24.174Z,9.13
2019-03-16T16:33:52.990Z,6.50
2019-03-16T16:36:22.142Z,11.67
2019-03-16T16:38:50.948Z,6.27
2019-03-16T16:41:20.215Z,6.23
2019-03-16T16:43:49.956Z,4.13
2019-03-16T16:46:18.821Z,5.97
2019-03-16T16:48:48.075Z,10.67
2019-03-16T16:51:16.985Z,6.40
2019-03-16T16:57:19.586Z,10.10
2019-03-16T16:59:48.471Z,9.77
2019-03-16T17:02:17.366Z,6.20
2019-03-16T17:04:48.583Z,6.73
2019-03-16T17:07:17.458Z,8.40
2019-03-16T17:09:46.445Z,5.63
2019-03-16T17:12:18.151Z,8.37
2019-03-16T17:14:47.988Z,8.70
2019-03-16T17:17:16.927Z,9.37
2019-03-16T17:19:45.878Z,6.37
2019-03-16T17:22:16.148Z,7.17
2019-03-16T17:24:44.954Z,9.43
2019-03-16T17:27:13.725Z,5.63
2019-03-16T17:29:42.606Z,9.57
2019-03-16T17:32:11.476Z,8.43
2019-03-16T17:34:41.307Z,8.87
2019-03-16T17:37:10.339Z,7.43
2019-03-16T17:39:39.143Z,10.27
2019-03-16T17:42:08.039Z,6.33
2019-03-16T17:44:36.916Z,8.57
2019-03-16T17:47:05.782Z,6.97
2019-03-16T17:49:34.623Z,7.53
2019-03-16T17:52:03.439Z,8.43
2019-03-16T17:54:53.410Z,8.20
2019-03-16T17:57:22.516Z,5.73
2019-03-16T17:59:51.527Z,5.67
2019-03-16T18:02:20.351Z,9.90
2019-03-16T18:04:50.316Z,8.07
2019-03-16T18:07:20.265Z,9.50
2019-03-16T18:09:49.327Z,8.73
2019-03-16T18:12:20.554Z,8.37
2019-03-16T18:14:49.368Z,6.43
2019-03-16T18:17:18.336Z,6.70
2019-03-16T18:19:48.476Z,4.63
2019-03-16T18:22:17.373Z,8.00
2019-03-16T18:24:46.186Z,5.23
2019-03-16T18:27:15.021Z,5.73
2019-03-16T18:29:43.898Z,6.03
2019-03-16T18:32:12.758Z,8.43
2019-03-16T18:34:42.567Z,8.73
2019-03-16T18:37:12.926Z,5.20
2019-03-16T18:39:41.853Z,5.27
2019-03-16T18:42:10.772Z,5.53
2019-03-16T18:44:39.818Z,3.10
2019-03-16T18:47:08.595Z,11.23
2019-03-16T18:49:37.445Z,8.77
2019-03-16T18:52:06.226Z,7.20
2019-03-16T18:54:35.165Z,8.30
2019-03-16T18:57:04.039Z,5.47
2019-03-16T18:59:32.944Z,6.67
2019-03-16T19:02:03.175Z,4.73
2019-03-16T19:04:33.493Z,8.40
2019-03-16T19:07:02.433Z,7.90
2019-03-16T19:09:31.187Z,7.93
2019-03-16T19:12:06.384Z,6.40
2019-03-16T19:14:35.380Z,10.90
2019-03-16T19:17:04.312Z,8.20
2019-03-16T19:19:33.135Z,4.00
2019-03-16T19:22:02.017Z,8.43
2019-03-16T19:24:30.882Z,5.80
2019-03-16T19:26:59.798Z,6.50
2019-03-16T19:29:28.703Z,8.50
2019-03-16T19:31:57.585Z,5.63
2019-03-16T19:34:26.410Z,4.57
2019-03-16T19:36:55.305Z,7.40
2019-03-16T19:39:25.243Z,5.53
2019-03-16T19:41:54.188Z,3.17
2019-03-16T19:44:23.040Z,6.83
2019-03-16T19:46:51.862Z,7.17
2019-03-16T19:49:20.809Z,2.97
2019-03-16T19:51:49.774Z,6.00
2019-03-16T19:54:18.663Z,6.00
2019-03-16T19:56:47.624Z,6.00
2019-03-16T19:59:16.520Z,3.80
2019-03-16T20:01:45.309Z,5.07
2019-03-16T20:04:14.201Z,6.20
2019-03-16T20:06:43.051Z,4.60
2019-03-16T20:09:11.962Z,3.80
2019-03-16T20:11:40.911Z,4.63
2019-03-16T20:14:09.830Z,6.63
2019-03-16T20:16:38.774Z,9.00
2019-03-16T20:19:07.708Z,7.50
2019-03-16T20:21:36.555Z,3.60
2019-03-16T20:24:05.568Z,6.87
2019-03-16T20:26:34.486Z,6.83
2019-03-16T20:29:03.472Z,8.83
2019-03-16T20:31:33.343Z,5.67
2019-03-16T20:34:02.414Z,4.30
2019-03-16T20:36:31.346Z,5.93
2019-03-16T20:39:00.219Z,7.33
2019-03-16T20:41:36.206Z,8.73
2019-03-16T20:43:59.644Z,5.37
2019-03-16T20:46:28.498Z,6.27
2019-03-16T20:48:57.404Z,4.10
2019-03-16T20:51:26.338Z,10.67
2019-03-16T20:53:55.381Z,9.17
2019-03-16T20:56:24.319Z,5.33
2019-03-16T20:58:53.298Z,6.47
2019-03-16T21:01:22.298Z,6.50
2019-03-16T21:03:51.362Z,10.87
2019-03-16T21:06:20.308Z,7.73
2019-03-16T21:09:02.190Z,3.20
2019-03-16T21:11:22.652Z,6.30
2019-03-16T21:13:51.505Z,6.47
2019-03-16T21:16:20.360Z,10.13
2019-03-16T21:18:49.266Z,9.20
2019-03-16T21:21:18.095Z,11.57
2019-03-16T21:23:47.046Z,5.80
2019-03-16T21:26:15.868Z,8.07
2019-03-16T21:28:44.751Z,9.83
2019-03-16T21:31:16.655Z,7.60
2019-03-16T21:33:45.929Z,6.20
2019-03-16T21:36:14.828Z,6.70
2019-03-16T21:38:43.699Z,6.87
2019-03-16T21:41:15.337Z,7.57
2019-03-16T21:43:44.247Z,8.00
2019-03-16T21:46:13.346Z,4.90
2019-03-16T21:48:47.518Z,6.10
2019-03-16T21:51:16.373Z,6.67
2019-03-16T21:53:45.226Z,5.03
2019-03-16T21:56:14.131Z,5.87
2019-03-16T21:58:43.020Z,9.47
2019-03-16T22:01:11.898Z,6.47
2019-03-16T22:06:11.222Z,4.87
2019-03-16T22:08:26.369Z,8.07
2019-03-16T22:08:40.047Z,6.30
2019-03-16T22:11:08.972Z,3.50
2019-03-16T22:13:37.774Z,6.57
2019-03-16T22:16:06.611Z,4.57
2019-03-16T22:18:35.430Z,7.23
2019-03-16T22:21:04.158Z,9.97
2019-03-16T22:23:32.934Z,12.57
2019-03-16T22:26:01.692Z,5.00
2019-03-16T22:28:30.508Z,10.77
2019-03-16T22:30:59.309Z,3.90
2019-03-16T22:33:28.181Z,10.17
2019-03-16T22:35:56.982Z,9.97
2019-03-16T22:38:26.962Z,3.30
2019-03-16T22:40:55.767Z,11.00
2019-03-16T22:43:24.571Z,7.07
2019-03-16T22:45:53.524Z,5.40
2019-03-16T22:48:22.230Z,7.47
2019-03-16T22:50:51.039Z,6.00
2019-03-16T22:53:19.754Z,6.33
2019-03-16T22:55:48.591Z,4.77
2019-03-16T22:58:17.404Z,15.87
2019-03-16T23:00:47.992Z,5.40
2019-03-16T23:03:16.913Z,3.60
2019-03-16T23:05:45.714Z,3.77
2019-03-16T23:08:14.474Z,5.40
2019-03-16T23:10:43.313Z,3.13
2019-03-16T23:13:12.109Z,5.97
2019-03-16T23:15:43.173Z,6.33
2019-03-16T23:18:13.224Z,10.93
2019-03-16T23:20:43.390Z,3.20
2019-03-16T23:23:15.685Z,7.73
2019-03-16T23:25:45.513Z,3.93
2019-03-16T23:28:16.626Z,6.97
2019-03-16T23:30:45.790Z,6.43
2019-03-16T23:33:17.380Z,6.77
2019-03-16T23:35:46.245Z,7.37
2019-03-16T23:38:15.848Z,5.23
2019-03-16T23:40:44.567Z,6.90
2019-03-16T23:43:13.358Z,6.50
2019-03-16T23:45:48.397Z,3.57
2019-03-16T23:48:17.151Z,7.17
2019-03-16T23:50:45.978Z,8.10
2019-03-16T23:53:14.806Z,6.37
2019-03-16T23:55:43.616Z,5.60
2019-03-16T23:58:15.118Z,5.77
